createdAt,value
2019-01-26T00:01:19.032Z,-2.00
2019-01-26T00:03:47.465Z,-2.00
2019-01-26T00:06:16.060Z,-2.10
2019-01-26T00:08:44.642Z,-2.20
2019-01-26T00:11:13.113Z,-2.20
2019-01-26T00:13:41.637Z,-2.20
2019-01-26T00:16:10.210Z,-2.20
2019-01-26T00:18:38.682Z,-2.10
2019-01-26T00:21:07.105Z,-2.10
2019-01-26T00:23:35.753Z,-2.10
2019-01-26T00:26:04.346Z,-2.10
2019-01-26T00:28:32.777Z,-2.00
2019-01-26T00:31:01.353Z,-1.90
2019-01-26T00:33:29.794Z,-1.90
2019-01-26T00:35:58.260Z,-1.70
2019-01-26T00:38:26.756Z,-1.70
2019-01-26T00:40:55.174Z,-1.70
2019-01-26T00:43:23.629Z,-1.60
2019-01-26T00:45:52.110Z,-1.50
2019-01-26T00:48:20.603Z,-1.60
2019-01-26T00:50:49.047Z,-1.60
2019-01-26T00:53:17.589Z,-1.50
2019-01-26T00:55:46.030Z,-1.50
2019-01-26T00:58:14.490Z,-1.40
2019-01-26T01:00:43.217Z,-1.40
2019-01-26T01:03:11.718Z,-1.40
2019-01-26T01:05:40.150Z,-1.40
2019-01-26T01:08:08.790Z,-1.40
2019-01-26T01:10:37.214Z,-1.40
2019-01-26T01:13:05.712Z,-1.40
2019-01-26T01:15:34.193Z,-1.30
2019-01-26T01:18:02.741Z,-1.20
2019-01-26T01:20:31.224Z,-1.20
2019-01-26T01:22:59.697Z,-1.20
2019-01-26T01:25:28.224Z,-1.20
2019-01-26T01:27:56.695Z,-1.20
2019-01-26T01:30:25.293Z,-1.20
2019-01-26T01:32:53.730Z,-1.20
2019-01-26T01:35:22.154Z,-1.20
2019-01-26T01:37:50.852Z,-1.20
2019-01-26T01:40:19.409Z,-1.20
2019-01-26T01:42:48.082Z,-1.20
2019-01-26T01:45:21.812Z,-1.20
2019-01-26T01:47:50.355Z,-1.20
2019-01-26T01:50:18.965Z,-1.20
2019-01-26T01:52:47.580Z,-1.30
2019-01-26T01:55:16.052Z,-1.20
2019-01-26T01:57:44.464Z,-1.20
2019-01-26T02:00:18.641Z,-1.20
2019-01-26T02:02:47.102Z,-1.10
2019-01-26T02:05:15.822Z,-1.10
2019-01-26T02:07:44.455Z,-1.20
2019-01-26T02:10:15.517Z,-1.30
2019-01-26T02:12:43.992Z,-1.30
2019-01-26T02:15:13.294Z,-1.20
2019-01-26T02:17:41.715Z,-1.30
2019-01-26T02:20:13.273Z,-1.40
2019-01-26T02:22:41.740Z,-1.40
2019-01-26T02:25:10.274Z,-1.40
2019-01-26T02:27:38.685Z,-1.40
2019-01-26T02:30:13.275Z,-1.40
2019-01-26T02:32:41.696Z,-1.40
2019-01-26T02:35:10.290Z,-1.30
2019-01-26T02:37:38.919Z,-1.30
2019-01-26T02:40:10.290Z,-1.30
2019-01-26T02:42:38.709Z,-1.30
2019-01-26T02:45:09.556Z,-1.30
2019-01-26T02:47:37.981Z,-1.30
2019-01-26T02:50:09.683Z,-1.40
2019-01-26T02:52:38.304Z,-1.30
2019-01-26T02:55:06.801Z,-1.30
2019-01-26T02:57:35.226Z,-1.20
2019-01-26T03:00:06.170Z,-1.30
2019-01-26T03:02:34.597Z,-1.20
2019-01-26T03:05:03.901Z,-1.30
2019-01-26T03:07:32.520Z,-1.20
2019-01-26T03:10:01.007Z,-1.20
2019-01-26T03:12:29.418Z,-1.10
2019-01-26T03:14:58.178Z,-1.20
2019-01-26T03:17:26.675Z,-1.20
2019-01-26T03:19:55.103Z,-1.20
2019-01-26T03:22:23.620Z,-1.10
2019-01-26T03:24:52.045Z,-1.10
2019-01-26T03:27:20.708Z,-1.20
2019-01-26T03:29:49.181Z,-1.20
2019-01-26T03:32:17.621Z,-1.20
2019-01-26T03:34:46.027Z,-1.20
2019-01-26T03:37:14.709Z,-1.10
2019-01-26T03:39:43.134Z,-1.10
2019-01-26T03:42:11.563Z,-1.10
2019-01-26T03:44:40.143Z,-1.10
2019-01-26T03:47:13.596Z,-1.20
2019-01-26T03:49:38.738Z,-1.20
2019-01-26T03:52:07.166Z,-1.40
2019-01-26T03:54:35.600Z,-1.30
2019-01-26T03:57:04.068Z,-1.30
2019-01-26T03:59:32.558Z,-1.30
2019-01-26T04:02:00.974Z,-1.30
2019-01-26T04:04:29.393Z,-1.30
2019-01-26T04:06:58.146Z,-1.30
2019-01-26T04:09:26.613Z,-1.30
2019-01-26T04:11:55.077Z,-1.30
2019-01-26T04:14:23.635Z,-1.30
2019-01-26T04:16:52.088Z,-1.30
2019-01-26T04:19:20.539Z,-1.30
2019-01-26T04:21:49.173Z,-1.40
2019-01-26T04:24:17.608Z,-1.30
2019-01-26T04:26:46.350Z,-1.30
2019-01-26T04:29:15.005Z,-1.30
2019-01-26T04:31:43.466Z,-1.20
2019-01-26T04:34:11.958Z,-1.20
2019-01-26T04:36:40.883Z,-1.30
2019-01-26T04:39:09.373Z,-1.40
2019-01-26T04:41:37.799Z,-1.30
2019-01-26T04:44:06.231Z,-1.30
2019-01-26T04:46:34.697Z,-1.20
2019-01-26T04:49:03.122Z,-1.10
2019-01-26T04:51:31.570Z,-1.10
2019-01-26T04:54:00.032Z,-1.10
2019-01-26T04:56:28.494Z,-1.10
2019-01-26T04:58:56.957Z,-1.10
2019-01-26T05:01:25.385Z,-1.10
2019-01-26T05:03:53.802Z,-1.20
2019-01-26T05:06:22.358Z,-1.20
2019-01-26T05:08:50.816Z,-1.20
2019-01-26T05:11:19.335Z,-1.20
2019-01-26T05:13:47.801Z,-1.10
2019-01-26T05:16:16.216Z,-1.10
2019-01-26T05:18:44.631Z,-1.10
2019-01-26T05:21:13.213Z,-1.10
2019-01-26T05:23:41.637Z,-1.10
2019-01-26T05:26:10.284Z,-1.10
2019-01-26T05:28:38.868Z,-1.10
2019-01-26T05:31:07.320Z,-1.00
2019-01-26T05:33:35.739Z,-1.00
2019-01-26T05:36:04.478Z,-1.00
2019-01-26T05:38:32.992Z,-1.00
2019-01-26T05:41:01.409Z,-1.00
2019-01-26T05:43:29.897Z,-0.90
2019-01-26T05:45:58.337Z,-0.90
2019-01-26T05:48:26.768Z,-0.80
2019-01-26T05:50:55.399Z,-0.80
2019-01-26T05:53:23.848Z,-0.80
2019-01-26T05:55:52.269Z,-0.80
2019-01-26T05:58:20.698Z,-0.80
2019-01-26T06:00:49.114Z,-0.70
2019-01-26T06:03:17.538Z,-0.80
2019-01-26T06:05:46.197Z,-0.80
2019-01-26T06:08:14.711Z,-0.80
2019-01-26T06:10:43.147Z,-0.80
2019-01-26T06:13:11.647Z,-0.70
2019-01-26T06:15:40.064Z,-0.70
2019-01-26T06:18:08.557Z,-0.80
2019-01-26T06:20:37.058Z,-0.70
2019-01-26T06:23:05.513Z,-0.70
2019-01-26T06:25:33.930Z,-0.60
2019-01-26T06:28:02.658Z,-0.60
2019-01-26T06:30:31.088Z,-0.50
2019-01-26T06:32:59.607Z,-0.60
2019-01-26T06:35:28.260Z,-0.60
2019-01-26T06:37:56.736Z,-0.50
2019-01-26T06:40:25.265Z,-0.40
2019-01-26T06:42:53.794Z,-0.40
2019-01-26T06:45:22.286Z,-0.50
2019-01-26T06:47:50.723Z,-0.50
2019-01-26T06:50:22.542Z,-0.50
2019-01-26T06:52:51.025Z,-0.50
2019-01-26T06:55:19.618Z,-0.50
2019-01-26T06:57:48.331Z,-0.50
2019-01-26T07:00:19.474Z,-0.40
2019-01-26T07:02:47.902Z,-0.40
2019-01-26T07:05:21.157Z,-0.30
2019-01-26T07:07:49.624Z,-0.30
2019-01-26T07:10:18.107Z,-0.30
2019-01-26T07:12:46.641Z,-0.30
2019-01-26T07:15:16.074Z,-0.30
2019-01-26T07:17:44.482Z,-0.30
2019-01-26T07:20:15.633Z,-0.20
2019-01-26T07:22:44.038Z,-0.20
2019-01-26T07:25:12.887Z,-0.20
2019-01-26T07:27:41.826Z,-0.20
2019-01-26T07:30:13.371Z,-0.20
2019-01-26T07:32:41.786Z,-0.20
2019-01-26T07:35:10.278Z,-0.10
2019-01-26T07:37:38.748Z,-0.10
2019-01-26T07:40:13.562Z,-0.20
2019-01-26T07:42:42.092Z,-0.10
2019-01-26T07:45:12.080Z,-0.10
2019-01-26T07:47:40.531Z,-0.10
2019-01-26T07:50:11.986Z,-0.10
2019-01-26T07:52:40.473Z,-0.10
2019-01-26T07:55:10.557Z,0.00
2019-01-26T07:57:39.242Z,0.00
2019-01-26T08:00:10.849Z,0.10
2019-01-26T08:02:39.681Z,0.10
2019-01-26T08:05:09.855Z,0.10
2019-01-26T08:07:38.271Z,0.10
2019-01-26T08:10:09.938Z,0.20
2019-01-26T08:12:38.350Z,0.30
2019-01-26T08:15:09.829Z,0.30
2019-01-26T08:17:38.466Z,0.30
2019-01-26T08:20:10.010Z,0.30
2019-01-26T08:22:38.487Z,0.30
2019-01-26T08:25:08.383Z,0.40
2019-01-26T08:27:36.836Z,0.50
2019-01-26T08:30:11.239Z,0.50
2019-01-26T08:32:39.849Z,0.40
2019-01-26T08:35:08.434Z,0.50
2019-01-26T08:37:36.904Z,0.40
2019-01-26T08:40:11.307Z,0.50
2019-01-26T08:42:39.820Z,0.60
2019-01-26T08:45:10.906Z,0.60
2019-01-26T08:47:39.816Z,0.60
2019-01-26T08:50:13.932Z,0.60
2019-01-26T08:52:42.398Z,0.70
2019-01-26T08:55:18.064Z,0.60
2019-01-26T08:57:42.154Z,0.60
2019-01-26T09:00:17.925Z,0.70
2019-01-26T09:02:54.129Z,0.80
2019-01-26T09:05:24.508Z,0.80
2019-01-26T09:07:52.985Z,0.90
2019-01-26T09:10:21.455Z,0.90
2019-01-26T09:12:50.042Z,0.90
2019-01-26T09:15:18.434Z,0.90
2019-01-26T09:17:46.850Z,0.90
2019-01-26T09:20:17.102Z,0.90
2019-01-26T09:22:45.497Z,1.00
2019-01-26T09:25:14.577Z,1.10
2019-01-26T09:27:43.106Z,1.10
2019-01-26T09:30:17.130Z,1.20
2019-01-26T09:32:45.680Z,1.10
2019-01-26T09:35:14.374Z,1.20
2019-01-26T09:37:42.892Z,1.20
2019-01-26T09:40:14.705Z,1.30
2019-01-26T09:42:43.254Z,1.30
2019-01-26T09:45:15.916Z,1.40
2019-01-26T09:47:44.566Z,1.40
